Airfield :







YOU CAN JOIN US ON...

 
LOGIN :

Register | Disclaimer

   EN    FR    IT 

 









Legend :    VFR   Marginal VFR   IFR   Intensive IFR   Very Intensive IFR
Visi :
Ceiling :
>= 8 km
>= 3000ft
5 to 8 km
1000 to 3000 ft
1500m to 5 km
500 to 1000 ft
800 to 1500m
200 to 500 ft
< 800m
< 200 ft
Symbols :   Thunderstorms  Fog  Heavy snow  Heavy precipitations  Wind > 20 kt







- Airport Elevation : 90 ft
- IATA code : YHU


CYHU - Montréal Saint-Hubert

CURRENT METAR :
  • 180300Z AUTO 04004KT 9SM CLR 09/07 A3024 RMK SLP243

EXPIRED METARs :
  • 180200Z AUTO 08002KT 9SM CLR 10/07 A3023 RMK SLP240
  • 180100Z AUTO 00000KT 9SM CLR 11/08 A3022 RMK SLP236

TAF TAF CYHU
Valid from the 18 at 00:00 until the 19 at 00:00 UTC


172338Z 1800/1824 05006KT P6SM SKC
FM180800 03006KT 6SM BR SCT002
PROB30 1808/1813 1SM BR BKN002
FM181300 05007KT P6SM SKC
BECMG 1822/1824 VRB03KT RMK FCST BASED ON AUTO OBS. NXT FCST BY 180600Z
No reported NOTAMs for that airfield.



MET'MAP, your aeronautical weather chart ! - Copyright ORBIFLY December 2007 - Disclaimer

ORBIFLY MET'MAP TEAM :

Programming & Development : Alexandra Zaïnal
Concept & Development : Baudouin d'Aumeries
Co-Development & Prog : Marc-Olivier Méhu
Technical & hardware support : Manuel Goepfert

Contact : metmap@orbifly.com




SOURCES & CREDITS :

   NOAA